sensor_id;sensor_type;location;lat;lon;timestamp;pressure;altitude;pressure_sealevel;temperature;humidity
51986;BME280;38002;53.296;6.600;2023-06-14T01:59:12;101963.88;;;14.37;63.44
51986;BME280;38002;53.296;6.600;2023-06-14T02:04:13;101993.19;;;14.44;63.18
51986;BME280;38002;53.296;6.600;2023-06-14T02:09:13;101987.72;;;14.44;63.90
51986;BME280;38002;53.296;6.600;2023-06-14T02:14:14;101987.88;;;14.43;63.77
51986;BME280;38002;53.296;6.600;2023-06-14T02:19:16;101992.81;;;14.39;64.30
51986;BME280;38002;53.296;6.600;2023-06-14T02:24:16;101988.25;;;14.30;64.64
51986;BME280;38002;53.296;6.600;2023-06-14T02:29:16;101991.16;;;14.29;64.88
51986;BME280;38002;53.296;6.600;2023-06-14T02:34:17;101987.34;;;14.22;65.49
51986;BME280;38002;53.296;6.600;2023-06-14T02:39:18;101989.69;;;14.17;66.05
51986;BME280;38002;53.296;6.600;2023-06-14T02:44:24;101986.25;;;14.15;65.70
51986;BME280;38002;53.296;6.600;2023-06-14T02:49:27;101982.81;;;14.13;65.89
51986;BME280;38002;53.296;6.600;2023-06-14T02:54:27;101993.34;;;14.07;66.22
51986;BME280;38002;53.296;6.600;2023-06-14T02:59:27;101991.41;;;14.00;66.32
51986;BME280;38002;53.296;6.600;2023-06-14T03:04:28;102002.13;;;13.93;66.67
51986;BME280;38002;53.296;6.600;2023-06-14T03:09:29;102005.47;;;13.87;67.12
51986;BME280;38002;53.296;6.600;2023-06-14T03:14:30;102006.66;;;13.85;67.16
51986;BME280;38002;53.296;6.600;2023-06-14T03:19:31;102022.34;;;13.83;67.05
51986;BME280;38002;53.296;6.600;2023-06-14T03:24:31;102022.13;;;13.76;67.40
51986;BME280;38002;53.296;6.600;2023-06-14T03:29:36;102027.47;;;13.68;67.86
51986;BME280;38002;53.296;6.600;2023-06-14T03:34:37;102032.56;;;13.63;68.14
51986;BME280;38002;53.296;6.600;2023-06-14T03:39:39;102036.63;;;13.59;68.57
51986;BME280;38002;53.296;6.600;2023-06-14T03:44:46;102042.69;;;13.53;68.40
51986;BME280;38002;53.296;6.600;2023-06-14T03:49:46;102051.03;;;13.51;68.98
51986;BME280;38002;53.296;6.600;2023-06-14T03:54:47;102043.69;;;13.52;69.70
51986;BME280;38002;53.296;6.600;2023-06-14T03:59:47;102042.13;;;13.49;69.10
51986;BME280;38002;53.296;6.600;2023-06-14T04:04:48;102049.47;;;13.49;69.91
51986;BME280;38002;53.296;6.600;2023-06-14T04:09:49;102052.34;;;13.47;70.07
51986;BME280;38002;53.296;6.600;2023-06-14T04:14:49;102061.25;;;13.49;69.73
51986;BME280;38002;53.296;6.600;2023-06-14T04:19:50;102057.22;;;13.53;69.81
51986;BME280;38002;53.296;6.600;2023-06-14T04:24:50;102071.28;;;13.58;70.23
51986;BME280;38002;53.296;6.600;2023-06-14T04:29:53;102071.66;;;13.63;69.74
51986;BME280;38002;53.296;6.600;2023-06-14T04:34:57;102071.06;;;13.70;70.47
51986;BME280;38002;53.296;6.600;2023-06-14T04:39:57;102070.63;;;13.74;70.26
51986;BME280;38002;53.296;6.600;2023-06-14T04:44:58;102080.50;;;13.85;70.44
51986;BME280;38002;53.296;6.600;2023-06-14T04:49:58;102078.84;;;13.92;70.45
51986;BME280;38002;53.296;6.600;2023-06-14T04:55:00;102093.78;;;13.97;71.04
51986;BME280;38002;53.296;6.600;2023-06-14T05:00:02;102093.16;;;14.03;71.74
51986;BME280;38002;53.296;6.600;2023-06-14T05:05:06;102093.41;;;14.10;71.44
51986;BME280;38002;53.296;6.600;2023-06-14T05:10:07;102097.22;;;14.17;71.29
51986;BME280;38002;53.296;6.600;2023-06-14T05:15:08;102099.03;;;14.26;71.39
51986;BME280;38002;53.296;6.600;2023-06-14T05:20:09;102109.38;;;14.32;71.85
51986;BME280;38002;53.296;6.600;2023-06-14T05:25:12;102105.00;;;14.39;71.98
51986;BME280;38002;53.296;6.600;2023-06-14T05:30:14;102112.13;;;14.50;71.83
51986;BME280;38002;53.296;6.600;2023-06-14T05:40:52;102106.88;;;14.74;71.59
51986;BME280;38002;53.296;6.600;2023-06-14T05:45:53;102114.66;;;14.87;71.22
51986;BME280;38002;53.296;6.600;2023-06-14T05:50:54;102117.13;;;14.98;71.10
51986;BME280;38002;53.296;6.600;2023-06-14T05:55:54;102109.34;;;15.11;71.17
51986;BME280;38002;53.296;6.600;2023-06-14T06:00:55;102122.47;;;15.25;70.71
51986;BME280;38002;53.296;6.600;2023-06-14T06:05:55;102121.00;;;15.39;70.68
51986;BME280;38002;53.296;6.600;2023-06-14T06:10:56;102117.53;;;15.55;70.77
51986;BME280;38002;53.296;6.600;2023-06-14T06:15:57;102123.06;;;15.71;70.15
51986;BME280;38002;53.296;6.600;2023-06-14T06:20:57;102122.44;;;15.85;70.01
51986;BME280;38002;53.296;6.600;2023-06-14T06:25:57;102135.19;;;16.02;69.76
51986;BME280;38002;53.296;6.600;2023-06-14T06:30:58;102135.25;;;16.18;69.60
51986;BME280;38002;53.296;6.600;2023-06-14T06:35:58;102139.75;;;16.35;69.61
51986;BME280;38002;53.296;6.600;2023-06-14T06:40:59;102148.88;;;16.52;68.76
51986;BME280;38002;53.296;6.600;2023-06-14T06:45:59;102158.03;;;16.69;68.77
51986;BME280;38002;53.296;6.600;2023-06-14T06:51:00;102166.13;;;16.87;68.63
51986;BME280;38002;53.296;6.600;2023-06-14T06:56:00;102170.59;;;17.04;68.28
51986;BME280;38002;53.296;6.600;2023-06-14T07:01:01;102168.69;;;17.20;68.10
51986;BME280;38002;53.296;6.600;2023-06-14T07:06:01;102172.91;;;17.39;67.59
51986;BME280;38002;53.296;6.600;2023-06-14T07:11:01;102177.91;;;17.60;67.18
51986;BME280;38002;53.296;6.600;2023-06-14T07:16:04;102178.19;;;17.81;67.10
51986;BME280;38002;53.296;6.600;2023-06-14T07:21:04;102169.50;;;18.00;66.66
51986;BME280;38002;53.296;6.600;2023-06-14T07:26:05;102173.56;;;18.21;66.18
51986;BME280;38002;53.296;6.600;2023-06-14T07:31:06;102173.78;;;18.42;65.81
51986;BME280;38002;53.296;6.600;2023-06-14T07:36:07;102177.44;;;18.65;65.22
51986;BME280;38002;53.296;6.600;2023-06-14T07:41:07;102177.25;;;18.89;65.11
51986;BME280;38002;53.296;6.600;2023-06-14T07:46:08;102185.69;;;19.11;64.58
51986;BME280;38002;53.296;6.600;2023-06-14T07:51:09;102185.47;;;19.35;64.14
51986;BME280;38002;53.296;6.600;2023-06-14T07:56:10;102188.84;;;19.60;63.75
51986;BME280;38002;53.296;6.600;2023-06-14T08:01:10;102178.41;;;19.84;63.26
51986;BME280;38002;53.296;6.600;2023-06-14T08:06:11;102178.97;;;20.09;62.81
51986;BME280;38002;53.296;6.600;2023-06-14T08:11:12;102187.63;;;20.35;62.33
51986;BME280;38002;53.296;6.600;2023-06-14T08:16:12;102181.72;;;20.60;61.56
51986;BME280;38002;53.296;6.600;2023-06-14T08:21:13;102170.25;;;20.84;61.10
51986;BME280;38002;53.296;6.600;2023-06-14T08:26:15;102167.13;;;21.08;60.61
51986;BME280;38002;53.296;6.600;2023-06-14T08:31:15;102178.69;;;21.40;60.00
51986;BME280;38002;53.296;6.600;2023-06-14T08:36:16;102180.38;;;21.68;58.23
51986;BME280;38002;53.296;6.600;2023-06-14T08:41:22;102171.97;;;21.90;57.79
51986;BME280;38002;53.296;6.600;2023-06-14T08:46:25;102180.03;;;22.19;57.38
51986;BME280;38002;53.296;6.600;2023-06-14T08:51:27;102175.66;;;22.44;57.25
51986;BME280;38002;53.296;6.600;2023-06-14T08:56:37;102164.66;;;22.71;56.47
51986;BME280;38002;53.296;6.600;2023-06-14T09:01:38;102169.44;;;23.03;56.07
51986;BME280;38002;53.296;6.600;2023-06-14T09:06:39;102161.09;;;23.29;56.21
51986;BME280;38002;53.296;6.600;2023-06-14T09:11:41;102175.19;;;23.61;55.43
51986;BME280;38002;53.296;6.600;2023-06-14T09:16:42;102169.38;;;23.75;54.76
51986;BME280;38002;53.296;6.600;2023-06-14T09:21:47;102169.97;;;23.97;53.76
51986;BME280;38002;53.296;6.600;2023-06-14T09:26:47;102178.25;;;24.23;54.15
51986;BME280;38002;53.296;6.600;2023-06-14T09:31:48;102173.06;;;24.33;52.96
51986;BME280;38002;53.296;6.600;2023-06-14T09:36:48;102179.41;;;24.47;51.74
51986;BME280;38002;53.296;6.600;2023-06-14T09:41:49;102184.91;;;24.60;51.52
51986;BME280;38002;53.296;6.600;2023-06-14T09:46:50;102193.75;;;24.89;51.28
51986;BME280;38002;53.296;6.600;2023-06-14T09:51:52;102187.16;;;25.14;50.69
51986;BME280;38002;53.296;6.600;2023-06-14T09:56:53;102179.88;;;25.13;49.48
51986;BME280;38002;53.296;6.600;2023-06-14T10:01:57;102189.56;;;25.29;48.85
51986;BME280;38002;53.296;6.600;2023-06-14T10:07:00;102183.38;;;25.52;48.87
51986;BME280;38002;53.296;6.600;2023-06-14T10:12:02;102177.19;;;25.74;48.41
51986;BME280;38002;53.296;6.600;2023-06-14T10:17:08;102178.28;;;25.92;46.09
51986;BME280;38002;53.296;6.600;2023-06-14T10:22:18;102181.78;;;26.05;46.60
51986;BME280;38002;53.296;6.600;2023-06-14T10:27:20;102169.94;;;26.10;46.75
51986;BME280;38002;53.296;6.600;2023-06-14T10:32:25;102173.03;;;26.20;46.86
51986;BME280;38002;53.296;6.600;2023-06-14T10:37:28;102171.47;;;26.24;46.43
51986;BME280;38002;53.296;6.600;2023-06-14T10:42:31;102162.22;;;26.42;45.96
51986;BME280;38002;53.296;6.600;2023-06-14T10:47:34;102163.91;;;26.61;45.05
51986;BME280;38002;53.296;6.600;2023-06-14T10:52:38;102152.97;;;26.89;45.16
51986;BME280;38002;53.296;6.600;2023-06-14T10:57:44;102161.50;;;27.06;43.83
51986;BME280;38002;53.296;6.600;2023-06-14T11:13:16;102150.28;;;26.83;43.66
51986;BME280;38002;53.296;6.600;2023-06-14T11:18:17;102144.63;;;27.01;43.51
51986;BME280;38002;53.296;6.600;2023-06-14T11:23:17;102141.38;;;27.04;40.22
51986;BME280;38002;53.296;6.600;2023-06-14T11:28:18;102142.72;;;27.25;42.99
51986;BME280;38002;53.296;6.600;2023-06-14T11:33:22;102133.63;;;27.29;43.31
51986;BME280;38002;53.296;6.600;2023-06-14T11:38:23;102123.53;;;27.40;43.31
51986;BME280;38002;53.296;6.600;2023-06-14T11:43:23;102119.66;;;27.41;39.68
51986;BME280;38002;53.296;6.600;2023-06-14T11:48:36;102125.50;;;27.63;42.25
51986;BME280;38002;53.296;6.600;2023-06-14T11:53:37;102127.72;;;28.01;42.58
51986;BME280;38002;53.296;6.600;2023-06-14T11:58:37;102118.69;;;28.22;42.10
51986;BME280;38002;53.296;6.600;2023-06-14T12:03:50;102130.44;;;28.35;40.54
51986;BME280;38002;53.296;6.600;2023-06-14T12:08:51;102122.50;;;28.44;41.26
51986;BME280;38002;53.296;6.600;2023-06-14T12:13:52;102120.84;;;28.43;41.10
51986;BME280;38002;53.296;6.600;2023-06-14T12:18:53;102123.81;;;28.53;40.34
51986;BME280;38002;53.296;6.600;2023-06-14T12:23:53;102111.34;;;28.72;40.42
51986;BME280;38002;53.296;6.600;2023-06-14T12:28:54;102119.56;;;28.79;40.55
51986;BME280;38002;53.296;6.600;2023-06-14T12:33:54;102125.91;;;28.46;40.19
51986;BME280;38002;53.296;6.600;2023-06-14T12:38:55;102118.63;;;28.45;40.06
51986;BME280;38002;53.296;6.600;2023-06-14T12:43:55;102124.31;;;28.50;40.72
51986;BME280;38002;53.296;6.600;2023-06-14T12:48:58;102115.41;;;28.81;39.99
51986;BME280;38002;53.296;6.600;2023-06-14T12:53:58;102128.06;;;28.56;38.87
51986;BME280;38002;53.296;6.600;2023-06-14T12:58:59;102131.72;;;28.28;38.97
51986;BME280;38002;53.296;6.600;2023-06-14T13:03:59;102120.81;;;28.15;38.55
51986;BME280;38002;53.296;6.600;2023-06-14T13:09:00;102128.00;;;27.87;39.36
51986;BME280;38002;53.296;6.600;2023-06-14T13:14:01;102116.72;;;27.71;39.59
51986;BME280;38002;53.296;6.600;2023-06-14T13:19:02;102117.84;;;27.35;39.59
51986;BME280;38002;53.296;6.600;2023-06-14T13:24:02;102118.66;;;27.24;39.73
51986;BME280;38002;53.296;6.600;2023-06-14T13:29:03;102117.72;;;27.65;40.33
51986;BME280;38002;53.296;6.600;2023-06-14T13:34:03;102122.31;;;27.82;39.59
51986;BME280;38002;53.296;6.600;2023-06-14T13:39:04;102132.31;;;27.78;39.29
51986;BME280;38002;53.296;6.600;2023-06-14T13:44:05;102122.88;;;27.96;39.76
51986;BME280;38002;53.296;6.600;2023-06-14T13:49:05;102128.31;;;28.26;39.44
51986;BME280;38002;53.296;6.600;2023-06-14T13:54:06;102117.78;;;27.93;38.38
51986;BME280;38002;53.296;6.600;2023-06-14T13:59:07;102113.81;;;27.77;39.13
51986;BME280;38002;53.296;6.600;2023-06-14T14:04:07;102111.28;;;27.64;39.42
51986;BME280;38002;53.296;6.600;2023-06-14T14:09:08;102108.34;;;27.36;39.18
51986;BME280;38002;53.296;6.600;2023-06-14T14:14:09;102107.38;;;27.19;38.77
51986;BME280;38002;53.296;6.600;2023-06-14T14:19:11;102109.34;;;27.53;39.47
51986;BME280;38002;53.296;6.600;2023-06-14T14:24:11;102102.63;;;27.66;39.13
51986;BME280;38002;53.296;6.600;2023-06-14T14:29:12;102108.50;;;27.52;39.03
51986;BME280;38002;53.296;6.600;2023-06-14T14:34:12;102101.78;;;27.42;38.92
51986;BME280;38002;53.296;6.600;2023-06-14T14:39:12;102100.38;;;27.51;39.45
51986;BME280;38002;53.296;6.600;2023-06-14T14:44:13;102095.69;;;27.80;39.38
51986;BME280;38002;53.296;6.600;2023-06-14T14:49:13;102089.59;;;27.94;38.38
51986;BME280;38002;53.296;6.600;2023-06-14T14:54:14;102097.34;;;28.04;38.59
51986;BME280;38002;53.296;6.600;2023-06-14T14:59:14;102093.91;;;27.74;39.88
51986;BME280;38002;53.296;6.600;2023-06-14T15:04:15;102092.19;;;27.38;41.07
51986;BME280;38002;53.296;6.600;2023-06-14T15:09:16;102107.63;;;27.17;41.27
51986;BME280;38002;53.296;6.600;2023-06-14T15:14:16;102097.66;;;27.09;42.36
51986;BME280;38002;53.296;6.600;2023-06-14T15:19:20;102093.06;;;27.27;42.73
51986;BME280;38002;53.296;6.600;2023-06-14T15:24:20;102096.28;;;26.89;42.90
51986;BME280;38002;53.296;6.600;2023-06-14T15:29:21;102102.53;;;26.31;43.60
51986;BME280;38002;53.296;6.600;2023-06-14T15:34:21;102100.44;;;26.08;44.03
51986;BME280;38002;53.296;6.600;2023-06-14T15:39:22;102101.84;;;25.99;44.61
51986;BME280;38002;53.296;6.600;2023-06-14T15:44:23;102110.06;;;25.94;44.66
51986;BME280;38002;53.296;6.600;2023-06-14T15:49:24;102099.53;;;25.78;45.08
51986;BME280;38002;53.296;6.600;2023-06-14T15:54:24;102104.19;;;25.66;45.43
51986;BME280;38002;53.296;6.600;2023-06-14T15:59:25;102101.09;;;25.56;45.86
51986;BME280;38002;53.296;6.600;2023-06-14T16:04:28;102104.44;;;25.40;46.42
51986;BME280;38002;53.296;6.600;2023-06-14T16:09:31;102093.91;;;25.42;46.50
51986;BME280;38002;53.296;6.600;2023-06-14T16:14:31;102092.66;;;25.19;48.06
51986;BME280;38002;53.296;6.600;2023-06-14T16:19:32;102097.19;;;25.14;46.86
51986;BME280;38002;53.296;6.600;2023-06-14T16:24:32;102095.75;;;24.80;49.48
51986;BME280;38002;53.296;6.600;2023-06-14T16:29:33;102100.06;;;24.76;47.13
51986;BME280;38002;53.296;6.600;2023-06-14T16:34:33;102093.56;;;24.57;49.23
51986;BME280;38002;53.296;6.600;2023-06-14T16:39:35;102093.88;;;24.42;50.08
51986;BME280;38002;53.296;6.600;2023-06-14T16:44:35;102099.69;;;24.34;47.97
51986;BME280;38002;53.296;6.600;2023-06-14T16:49:36;102095.66;;;24.30;48.47
51986;BME280;38002;53.296;6.600;2023-06-14T16:54:36;102099.19;;;24.06;48.42
51986;BME280;38002;53.296;6.600;2023-06-14T16:59:37;102096.50;;;23.80;48.94
51986;BME280;38002;53.296;6.600;2023-06-14T17:04:37;102102.97;;;23.61;49.46
51986;BME280;38002;53.296;6.600;2023-06-14T17:09:38;102107.72;;;23.47;49.63
51986;BME280;38002;53.296;6.600;2023-06-14T17:14:38;102108.34;;;23.36;50.37
51986;BME280;38002;53.296;6.600;2023-06-14T17:19:39;102110.06;;;23.17;50.50
51986;BME280;38002;53.296;6.600;2023-06-14T17:24:40;102108.78;;;23.13;50.88
51986;BME280;38002;53.296;6.600;2023-06-14T17:29:40;102116.06;;;23.01;51.47
51986;BME280;38002;53.296;6.600;2023-06-14T17:34:40;102119.88;;;22.87;51.82
51986;BME280;38002;53.296;6.600;2023-06-14T17:39:41;102131.84;;;22.81;51.45
51986;BME280;38002;53.296;6.600;2023-06-14T17:44:41;102133.09;;;22.72;51.67
51986;BME280;38002;53.296;6.600;2023-06-14T17:49:42;102134.34;;;22.62;52.35
51986;BME280;38002;53.296;6.600;2023-06-14T17:54:43;102148.59;;;22.46;52.60
51986;BME280;38002;53.296;6.600;2023-06-14T17:59:43;102142.00;;;22.47;52.65
51986;BME280;38002;53.296;6.600;2023-06-14T18:04:44;102138.13;;;22.48;53.02
51986;BME280;38002;53.296;6.600;2023-06-14T18:09:44;102138.13;;;22.42;53.55
51986;BME280;38002;53.296;6.600;2023-06-14T18:14:45;102145.59;;;22.35;53.55
51986;BME280;38002;53.296;6.600;2023-06-14T18:19:46;102156.81;;;22.27;53.36
51986;BME280;38002;53.296;6.600;2023-06-14T18:24:47;102157.88;;;22.12;53.79
51986;BME280;38002;53.296;6.600;2023-06-14T18:29:47;102153.50;;;21.97;53.73
51986;BME280;38002;53.296;6.600;2023-06-14T18:34:48;102163.00;;;21.88;54.22
51986;BME280;38002;53.296;6.600;2023-06-14T18:39:49;102168.53;;;21.81;54.57
51986;BME280;38002;53.296;6.600;2023-06-14T18:44:49;102174.66;;;21.70;55.02
51986;BME280;38002;53.296;6.600;2023-06-14T18:49:50;102168.34;;;21.55;55.35
51986;BME280;38002;53.296;6.600;2023-06-14T18:54:50;102169.13;;;21.42;55.56
51986;BME280;38002;53.296;6.600;2023-06-14T18:59:51;102179.22;;;21.28;55.79
51986;BME280;38002;53.296;6.600;2023-06-14T19:04:51;102172.34;;;21.18;56.33
51986;BME280;38002;53.296;6.600;2023-06-14T19:09:52;102178.78;;;21.04;56.44
51986;BME280;38002;53.296;6.600;2023-06-14T19:14:52;102179.50;;;20.91;56.88
51986;BME280;38002;53.296;6.600;2023-06-14T19:19:53;102181.69;;;20.74;57.37
51986;BME280;38002;53.296;6.600;2023-06-14T19:24:53;102193.63;;;20.60;57.66
51986;BME280;38002;53.296;6.600;2023-06-14T19:29:53;102195.97;;;20.42;58.22
51986;BME280;38002;53.296;6.600;2023-06-14T19:34:54;102200.97;;;20.32;58.23
51986;BME280;38002;53.296;6.600;2023-06-14T19:39:55;102207.63;;;20.23;58.41
51986;BME280;38002;53.296;6.600;2023-06-14T19:44:55;102219.06;;;20.05;58.96
51986;BME280;38002;53.296;6.600;2023-06-14T19:49:56;102220.59;;;19.93;59.40
51986;BME280;38002;53.296;6.600;2023-06-14T19:54:57;102228.09;;;19.84;59.58
51986;BME280;38002;53.296;6.600;2023-06-14T19:59:58;102229.97;;;19.69;59.89
51986;BME280;38002;53.296;6.600;2023-06-14T20:04:59;102232.34;;;19.58;60.26
51986;BME280;38002;53.296;6.600;2023-06-14T20:10:00;102238.69;;;19.43;60.65
51986;BME280;38002;53.296;6.600;2023-06-14T20:15:00;102236.53;;;19.31;60.74
51986;BME280;38002;53.296;6.600;2023-06-14T20:20:01;102233.53;;;19.18;61.01
51986;BME280;38002;53.296;6.600;2023-06-14T20:25:02;102236.75;;;19.07;61.46
51986;BME280;38002;53.296;6.600;2023-06-14T20:30:03;102238.75;;;18.90;61.86
51986;BME280;38002;53.296;6.600;2023-06-14T20:35:04;102252.94;;;18.79;62.17
51986;BME280;38002;53.296;6.600;2023-06-14T20:40:05;102251.44;;;18.68;62.21
51986;BME280;38002;53.296;6.600;2023-06-14T20:45:06;102261.50;;;18.61;62.32
51986;BME280;38002;53.296;6.600;2023-06-14T20:50:07;102255.53;;;18.41;66.06
51986;BME280;38002;53.296;6.600;2023-06-14T20:55:11;102254.19;;;18.37;62.57
51986;BME280;38002;53.296;6.600;2023-06-14T21:00:12;102258.19;;;18.27;62.50
51986;BME280;38002;53.296;6.600;2023-06-14T21:05:13;102256.41;;;18.03;65.87
51986;BME280;38002;53.296;6.600;2023-06-14T21:10:13;102262.22;;;18.00;62.66
51986;BME280;38002;53.296;6.600;2023-06-14T21:15:14;102265.00;;;17.92;62.95
51986;BME280;38002;53.296;6.600;2023-06-14T21:20:15;102264.16;;;17.83;62.77
51986;BME280;38002;53.296;6.600;2023-06-14T21:25:15;102262.13;;;17.77;62.71
51986;BME280;38002;53.296;6.600;2023-06-14T21:30:16;102271.06;;;17.71;62.96
51986;BME280;38002;53.296;6.600;2023-06-14T21:35:17;102267.31;;;17.64;62.79
51986;BME280;38002;53.296;6.600;2023-06-14T21:40:19;102264.22;;;17.59;63.23
51986;BME280;38002;53.296;6.600;2023-06-14T21:45:20;102264.19;;;17.51;63.16
51986;BME280;38002;53.296;6.600;2023-06-14T21:50:20;102265.91;;;17.44;63.51
51986;BME280;38002;53.296;6.600;2023-06-14T21:55:20;102265.06;;;17.35;63.85
51986;BME280;38002;53.296;6.600;2023-06-14T22:00:23;102259.03;;;17.23;63.68
51986;BME280;38002;53.296;6.600;2023-06-14T22:05:24;102260.94;;;17.15;64.04
51986;BME280;38002;53.296;6.600;2023-06-14T22:10:24;102260.78;;;17.08;64.19
51986;BME280;38002;53.296;6.600;2023-06-14T22:15:25;102256.28;;;16.99;64.44
51986;BME280;38002;53.296;6.600;2023-06-14T22:20:25;102257.63;;;16.87;64.62
51986;BME280;38002;53.296;6.600;2023-06-14T22:25:29;102258.31;;;16.81;64.76
51986;BME280;38002;53.296;6.600;2023-06-14T22:30:30;102260.00;;;16.74;65.04
51986;BME280;38002;53.296;6.600;2023-06-14T22:35:32;102255.72;;;16.71;65.22
51986;BME280;38002;53.296;6.600;2023-06-14T22:40:33;102259.97;;;16.66;65.25
51986;BME280;38002;53.296;6.600;2023-06-14T22:45:33;102257.94;;;16.60;65.43
51986;BME280;38002;53.296;6.600;2023-06-14T22:50:36;102258.72;;;16.52;65.72
51986;BME280;38002;53.296;6.600;2023-06-14T22:55:37;102260.59;;;16.44;65.70
51986;BME280;38002;53.296;6.600;2023-06-14T23:00:38;102266.22;;;16.34;66.01
51986;BME280;38002;53.296;6.600;2023-06-14T23:05:39;102262.56;;;16.25;66.17
51986;BME280;38002;53.296;6.600;2023-06-14T23:10:41;102264.91;;;16.12;69.88
51986;BME280;38002;53.296;6.600;2023-06-14T23:15:42;102260.44;;;16.11;66.43
51986;BME280;38002;53.296;6.600;2023-06-14T23:20:43;102258.19;;;16.07;66.49
51986;BME280;38002;53.296;6.600;2023-06-14T23:25:43;102259.38;;;16.04;66.70
51986;BME280;38002;53.296;6.600;2023-06-14T23:30:45;102252.44;;;15.92;70.47
51986;BME280;38002;53.296;6.600;2023-06-14T23:35:46;102253.47;;;15.91;67.07
51986;BME280;38002;53.296;6.600;2023-06-14T23:40:47;102257.72;;;15.85;66.85
51986;BME280;38002;53.296;6.600;2023-06-14T23:45:50;102250.13;;;15.79;66.92
51986;BME280;38002;53.296;6.600;2023-06-14T23:50:54;102257.44;;;15.71;67.11
51986;BME280;38002;53.296;6.600;2023-06-14T23:55:54;102253.44;;;15.57;70.95
